sensor_id;sensor_type;location;lat;lon;timestamp;temperature;humidity
75500;DHT22;64076;51.466;7.260;2023-01-08T12:36:13;20.60;41.00
75500;DHT22;64076;51.466;7.260;2023-01-08T13:09:21;20.50;41.10
75500;DHT22;64076;51.466;7.260;2023-01-08T13:11:51;20.60;40.90
75500;DHT22;64076;51.466;7.260;2023-01-08T13:14:17;20.60;40.90
75500;DHT22;64076;51.466;7.260;2023-01-08T13:16:45;20.60;40.90
75500;DHT22;64076;51.466;7.260;2023-01-08T13:19:38;20.60;40.90
75500;DHT22;64076;51.466;7.260;2023-01-08T13:29:41;20.70;40.80
75500;DHT22;64076;51.466;7.260;2023-01-08T13:37:23;20.70;40.90
75500;DHT22;64076;51.466;7.260;2023-01-08T13:44:59;20.70;40.90
75500;DHT22;64076;51.466;7.260;2023-01-08T13:47:40;20.70;40.90
75500;DHT22;64076;51.466;7.260;2023-01-08T13:52:58;20.70;40.90
75500;DHT22;64076;51.466;7.260;2023-01-08T13:58:02;20.70;41.00
75500;DHT22;64076;51.466;7.260;2023-01-08T14:00:36;20.70;41.00
75500;DHT22;64076;51.466;7.260;2023-01-08T14:13:27;20.70;41.00
75500;DHT22;64076;51.466;7.260;2023-01-08T14:15:57;20.70;41.00
75500;DHT22;64076;51.466;7.260;2023-01-08T14:18:24;20.60;41.00
75500;DHT22;64076;51.466;7.260;2023-01-08T14:23:25;20.60;41.00
75500;DHT22;64076;51.466;7.260;2023-01-08T14:25:51;20.70;41.00
75500;DHT22;64076;51.466;7.260;2023-01-08T14:45:37;20.60;41.10
75500;DHT22;64076;51.466;7.260;2023-01-08T14:48:11;20.60;41.10
75500;DHT22;64076;51.466;7.260;2023-01-08T15:20:55;20.60;41.10
75500;DHT22;64076;51.466;7.260;2023-01-08T15:31:09;20.50;41.20
75500;DHT22;64076;51.466;7.260;2023-01-08T15:36:01;20.50;41.20
75500;DHT22;64076;51.466;7.260;2023-01-08T15:38:26;20.50;41.20
75500;DHT22;64076;51.466;7.260;2023-01-08T15:40:53;20.50;41.20
75500;DHT22;64076;51.466;7.260;2023-01-08T15:43:19;20.50;41.10
75500;DHT22;64076;51.466;7.260;2023-01-08T15:45:47;20.50;41.20
75500;DHT22;64076;51.466;7.260;2023-01-08T15:48:13;20.50;41.10
75500;DHT22;64076;51.466;7.260;2023-01-08T15:50:41;20.50;41.20
75500;DHT22;64076;51.466;7.260;2023-01-08T15:55:44;20.50;41.10
75500;DHT22;64076;51.466;7.260;2023-01-08T15:58:11;20.50;41.10
75500;DHT22;64076;51.466;7.260;2023-01-08T16:00:39;20.50;41.20
75500;DHT22;64076;51.466;7.260;2023-01-08T16:03:05;20.50;41.20
75500;DHT22;64076;51.466;7.260;2023-01-08T16:05:31;20.50;41.20
75500;DHT22;64076;51.466;7.260;2023-01-08T16:07:58;20.40;41.20
75500;DHT22;64076;51.466;7.260;2023-01-08T16:10:23;20.50;41.10
75500;DHT22;64076;51.466;7.260;2023-01-08T16:12:49;20.50;41.20
75500;DHT22;64076;51.466;7.260;2023-01-08T16:15:15;20.50;41.10
75500;DHT22;64076;51.466;7.260;2023-01-08T16:17:42;20.50;41.10
75500;DHT22;64076;51.466;7.260;2023-01-08T16:20:10;20.50;41.10
75500;DHT22;64076;51.466;7.260;2023-01-08T16:22:36;20.50;41.20
75500;DHT22;64076;51.466;7.260;2023-01-08T16:25:02;20.50;41.20
75500;DHT22;64076;51.466;7.260;2023-01-08T16:27:30;20.50;41.20
75500;DHT22;64076;51.466;7.260;2023-01-08T16:29:55;20.50;41.20
75500;DHT22;64076;51.466;7.260;2023-01-08T16:32:21;20.50;41.20
75500;DHT22;64076;51.466;7.260;2023-01-08T16:34:46;20.50;41.20
75500;DHT22;64076;51.466;7.260;2023-01-08T16:37:12;20.50;41.30
75500;DHT22;64076;51.466;7.260;2023-01-08T16:39:38;20.50;41.20
75500;DHT22;64076;51.466;7.260;2023-01-08T16:42:03;20.50;41.20
75500;DHT22;64076;51.466;7.260;2023-01-08T16:44:30;20.50;41.20
75500;DHT22;64076;51.466;7.260;2023-01-08T16:46:57;20.50;41.20
75500;DHT22;64076;51.466;7.260;2023-01-08T16:49:25;20.50;41.20
75500;DHT22;64076;51.466;7.260;2023-01-08T16:51:51;20.50;41.20
75500;DHT22;64076;51.466;7.260;2023-01-08T16:54:16;20.50;41.20
75500;DHT22;64076;51.466;7.260;2023-01-08T16:56:42;20.50;41.20
75500;DHT22;64076;51.466;7.260;2023-01-08T16:59:09;20.50;41.20
75500;DHT22;64076;51.466;7.260;2023-01-08T17:01:35;20.50;41.20
75500;DHT22;64076;51.466;7.260;2023-01-08T17:04:00;20.50;41.20
75500;DHT22;64076;51.466;7.260;2023-01-08T17:06:26;20.50;41.20
75500;DHT22;64076;51.466;7.260;2023-01-08T17:08:52;20.50;41.20
75500;DHT22;64076;51.466;7.260;2023-01-08T17:11:20;20.50;41.20
75500;DHT22;64076;51.466;7.260;2023-01-08T17:13:47;20.50;41.20
75500;DHT22;64076;51.466;7.260;2023-01-08T17:16:15;20.50;41.20
75500;DHT22;64076;51.466;7.260;2023-01-08T17:18:41;20.50;41.10
75500;DHT22;64076;51.466;7.260;2023-01-08T17:21:10;20.50;41.10
75500;DHT22;64076;51.466;7.260;2023-01-08T17:23:36;20.50;41.10
75500;DHT22;64076;51.466;7.260;2023-01-08T17:26:10;20.50;41.10
75500;DHT22;64076;51.466;7.260;2023-01-08T17:28:37;20.50;41.10
75500;DHT22;64076;51.466;7.260;2023-01-08T17:31:03;20.50;41.10
75500;DHT22;64076;51.466;7.260;2023-01-08T17:33:30;20.50;41.10
75500;DHT22;64076;51.466;7.260;2023-01-08T17:35:56;20.50;41.10
75500;DHT22;64076;51.466;7.260;2023-01-08T17:38:22;20.50;41.10
75500;DHT22;64076;51.466;7.260;2023-01-08T17:40:48;20.50;41.10
75500;DHT22;64076;51.466;7.260;2023-01-08T17:43:14;20.50;41.10
75500;DHT22;64076;51.466;7.260;2023-01-08T17:45:39;20.40;41.10
75500;DHT22;64076;51.466;7.260;2023-01-08T17:48:05;20.40;41.10
75500;DHT22;64076;51.466;7.260;2023-01-08T17:50:30;20.40;41.10
75500;DHT22;64076;51.466;7.260;2023-01-08T17:52:56;20.40;41.10
75500;DHT22;64076;51.466;7.260;2023-01-08T17:55:23;20.40;41.10
75500;DHT22;64076;51.466;7.260;2023-01-08T17:57:49;20.40;41.10
75500;DHT22;64076;51.466;7.260;2023-01-08T18:00:16;20.40;41.00
75500;DHT22;64076;51.466;7.260;2023-01-08T18:02:41;20.40;41.00
75500;DHT22;64076;51.466;7.260;2023-01-08T18:05:07;20.40;41.00
75500;DHT22;64076;51.466;7.260;2023-01-08T18:07:33;20.40;41.00
75500;DHT22;64076;51.466;7.260;2023-01-08T18:09:58;20.40;40.90
75500;DHT22;64076;51.466;7.260;2023-01-08T18:12:24;20.40;41.00
75500;DHT22;64076;51.466;7.260;2023-01-08T18:14:50;20.40;41.00
75500;DHT22;64076;51.466;7.260;2023-01-08T18:17:15;20.40;40.90
75500;DHT22;64076;51.466;7.260;2023-01-08T18:19:42;20.40;40.90
75500;DHT22;64076;51.466;7.260;2023-01-08T18:22:08;20.40;40.90
75500;DHT22;64076;51.466;7.260;2023-01-08T18:24:33;20.40;40.90
75500;DHT22;64076;51.466;7.260;2023-01-08T18:26:59;20.40;40.90
75500;DHT22;64076;51.466;7.260;2023-01-08T18:29:25;20.40;40.90
75500;DHT22;64076;51.466;7.260;2023-01-08T18:31:50;20.40;40.90
75500;DHT22;64076;51.466;7.260;2023-01-08T18:34:16;20.40;40.90
75500;DHT22;64076;51.466;7.260;2023-01-08T18:36:42;20.40;40.90
75500;DHT22;64076;51.466;7.260;2023-01-08T18:39:08;20.40;40.80
75500;DHT22;64076;51.466;7.260;2023-01-08T18:41:33;20.40;40.90
75500;DHT22;64076;51.466;7.260;2023-01-08T18:44:17;20.40;40.80
75500;DHT22;64076;51.466;7.260;2023-01-08T18:46:43;20.40;40.80
75500;DHT22;64076;51.466;7.260;2023-01-08T18:49:09;20.40;40.80
75500;DHT22;64076;51.466;7.260;2023-01-08T18:51:34;20.40;40.80
75500;DHT22;64076;51.466;7.260;2023-01-08T18:54:00;20.30;40.80
75500;DHT22;64076;51.466;7.260;2023-01-08T18:56:33;20.30;40.80
75500;DHT22;64076;51.466;7.260;2023-01-08T18:58:59;20.30;40.80
75500;DHT22;64076;51.466;7.260;2023-01-08T19:01:25;20.30;40.80
75500;DHT22;64076;51.466;7.260;2023-01-08T19:03:50;20.30;40.80
75500;DHT22;64076;51.466;7.260;2023-01-08T19:06:17;20.30;40.70
75500;DHT22;64076;51.466;7.260;2023-01-08T19:08:43;20.30;40.70
75500;DHT22;64076;51.466;7.260;2023-01-08T19:11:10;20.30;40.70
75500;DHT22;64076;51.466;7.260;2023-01-08T19:13:36;20.30;40.70
75500;DHT22;64076;51.466;7.260;2023-01-08T19:16:06;20.30;40.70
75500;DHT22;64076;51.466;7.260;2023-01-08T19:18:32;20.30;40.70
75500;DHT22;64076;51.466;7.260;2023-01-08T19:21:00;20.30;40.60
75500;DHT22;64076;51.466;7.260;2023-01-08T19:23:26;20.30;40.60
75500;DHT22;64076;51.466;7.260;2023-01-08T19:25:52;20.30;40.60
75500;DHT22;64076;51.466;7.260;2023-01-08T19:28:17;20.30;40.70
75500;DHT22;64076;51.466;7.260;2023-01-08T19:30:43;20.30;40.70
75500;DHT22;64076;51.466;7.260;2023-01-08T19:33:09;20.30;40.70
75500;DHT22;64076;51.466;7.260;2023-01-08T19:35:38;20.30;40.70
75500;DHT22;64076;51.466;7.260;2023-01-08T19:38:04;20.30;40.60
75500;DHT22;64076;51.466;7.260;2023-01-08T19:40:30;20.30;40.70
75500;DHT22;64076;51.466;7.260;2023-01-08T19:42:55;20.30;40.70
75500;DHT22;64076;51.466;7.260;2023-01-08T19:45:39;20.30;40.70
75500;DHT22;64076;51.466;7.260;2023-01-08T19:48:05;20.30;40.60
75500;DHT22;64076;51.466;7.260;2023-01-08T19:50:31;20.30;40.60
75500;DHT22;64076;51.466;7.260;2023-01-08T19:52:58;20.30;40.70
75500;DHT22;64076;51.466;7.260;2023-01-08T19:55:24;20.30;40.70
75500;DHT22;64076;51.466;7.260;2023-01-08T19:57:50;20.30;40.70
75500;DHT22;64076;51.466;7.260;2023-01-08T20:00:16;20.30;40.60
75500;DHT22;64076;51.466;7.260;2023-01-08T20:02:42;20.30;40.60
75500;DHT22;64076;51.466;7.260;2023-01-08T20:05:08;20.30;40.60
75500;DHT22;64076;51.466;7.260;2023-01-08T20:07:34;20.30;40.70
75500;DHT22;64076;51.466;7.260;2023-01-08T20:10:00;20.30;40.70
75500;DHT22;64076;51.466;7.260;2023-01-08T20:12:26;20.30;40.50
75500;DHT22;64076;51.466;7.260;2023-01-08T20:14:52;20.30;40.60
75500;DHT22;64076;51.466;7.260;2023-01-08T20:17:17;20.30;40.60
75500;DHT22;64076;51.466;7.260;2023-01-08T20:19:44;20.30;40.60
75500;DHT22;64076;51.466;7.260;2023-01-08T20:22:09;20.30;40.70
75500;DHT22;64076;51.466;7.260;2023-01-08T20:24:37;20.30;40.60
75500;DHT22;64076;51.466;7.260;2023-01-08T20:27:02;20.30;40.50
75500;DHT22;64076;51.466;7.260;2023-01-08T20:29:28;20.30;40.60
75500;DHT22;64076;51.466;7.260;2023-01-08T20:31:54;20.30;40.60
75500;DHT22;64076;51.466;7.260;2023-01-08T20:34:22;20.30;40.70
75500;DHT22;64076;51.466;7.260;2023-01-08T20:36:48;20.30;40.60
75500;DHT22;64076;51.466;7.260;2023-01-08T20:39:15;20.30;40.60
75500;DHT22;64076;51.466;7.260;2023-01-08T20:41:45;20.30;40.60
75500;DHT22;64076;51.466;7.260;2023-01-08T20:44:11;20.30;40.60
75500;DHT22;64076;51.466;7.260;2023-01-08T20:46:37;20.20;40.60
75500;DHT22;64076;51.466;7.260;2023-01-08T20:49:11;20.20;40.60
75500;DHT22;64076;51.466;7.260;2023-01-08T20:51:40;20.20;40.60
75500;DHT22;64076;51.466;7.260;2023-01-08T20:54:08;20.20;40.60
75500;DHT22;64076;51.466;7.260;2023-01-08T20:56:34;20.20;40.70
75500;DHT22;64076;51.466;7.260;2023-01-08T20:59:00;20.20;40.70
75500;DHT22;64076;51.466;7.260;2023-01-08T21:01:28;20.20;40.70
75500;DHT22;64076;51.466;7.260;2023-01-08T21:03:56;20.20;40.60
75500;DHT22;64076;51.466;7.260;2023-01-08T21:06:25;20.20;40.60
75500;DHT22;64076;51.466;7.260;2023-01-08T21:08:53;20.20;40.70
75500;DHT22;64076;51.466;7.260;2023-01-08T21:11:19;20.20;40.70
75500;DHT22;64076;51.466;7.260;2023-01-08T21:13:45;20.30;40.70
75500;DHT22;64076;51.466;7.260;2023-01-08T21:16:13;20.30;40.60
75500;DHT22;64076;51.466;7.260;2023-01-08T21:18:39;20.20;40.70
75500;DHT22;64076;51.466;7.260;2023-01-08T21:21:10;20.20;40.60
75500;DHT22;64076;51.466;7.260;2023-01-08T21:23:36;20.20;40.60
75500;DHT22;64076;51.466;7.260;2023-01-08T21:26:08;20.20;40.70
75500;DHT22;64076;51.466;7.260;2023-01-08T21:28:35;20.30;40.70
75500;DHT22;64076;51.466;7.260;2023-01-08T21:31:06;20.20;40.60
75500;DHT22;64076;51.466;7.260;2023-01-08T21:33:32;20.20;40.70
75500;DHT22;64076;51.466;7.260;2023-01-08T21:36:02;20.20;40.70
75500;DHT22;64076;51.466;7.260;2023-01-08T21:38:31;20.20;40.70
75500;DHT22;64076;51.466;7.260;2023-01-08T21:41:02;20.20;40.70
75500;DHT22;64076;51.466;7.260;2023-01-08T21:43:28;20.20;40.70
75500;DHT22;64076;51.466;7.260;2023-01-08T21:46:12;20.20;40.80
75500;DHT22;64076;51.466;7.260;2023-01-08T21:48:39;20.20;40.80
75500;DHT22;64076;51.466;7.260;2023-01-08T21:51:04;20.20;40.80
75500;DHT22;64076;51.466;7.260;2023-01-08T21:53:30;20.20;40.80
75500;DHT22;64076;51.466;7.260;2023-01-08T21:56:00;20.20;40.70
75500;DHT22;64076;51.466;7.260;2023-01-08T21:58:26;20.20;40.80
75500;DHT22;64076;51.466;7.260;2023-01-08T22:00:52;20.20;40.80
75500;DHT22;64076;51.466;7.260;2023-01-08T22:03:18;20.20;40.70
75500;DHT22;64076;51.466;7.260;2023-01-08T22:05:44;20.20;40.80
75500;DHT22;64076;51.466;7.260;2023-01-08T22:08:10;20.20;40.70
75500;DHT22;64076;51.466;7.260;2023-01-08T22:10:42;20.20;40.80
75500;DHT22;64076;51.466;7.260;2023-01-08T22:13:08;20.20;40.80
75500;DHT22;64076;51.466;7.260;2023-01-08T22:15:34;20.20;40.80
75500;DHT22;64076;51.466;7.260;2023-01-08T22:17:59;20.20;40.80
75500;DHT22;64076;51.466;7.260;2023-01-08T22:20:25;20.20;40.80
75500;DHT22;64076;51.466;7.260;2023-01-08T22:22:50;20.20;40.80
75500;DHT22;64076;51.466;7.260;2023-01-08T22:25:16;20.20;40.80
75500;DHT22;64076;51.466;7.260;2023-01-08T22:27:41;20.20;40.80
75500;DHT22;64076;51.466;7.260;2023-01-08T22:30:07;20.20;40.80
75500;DHT22;64076;51.466;7.260;2023-01-08T22:32:34;20.20;40.80
75500;DHT22;64076;51.466;7.260;2023-01-08T22:34:59;20.20;40.80
75500;DHT22;64076;51.466;7.260;2023-01-08T22:37:25;20.20;40.80
75500;DHT22;64076;51.466;7.260;2023-01-08T22:39:50;20.10;40.90
75500;DHT22;64076;51.466;7.260;2023-01-08T22:42:16;20.10;41.00
75500;DHT22;64076;51.466;7.260;2023-01-08T22:44:41;20.10;41.00
75500;DHT22;64076;51.466;7.260;2023-01-08T22:47:07;20.10;41.00
75500;DHT22;64076;51.466;7.260;2023-01-08T22:49:35;20.10;41.10
75500;DHT22;64076;51.466;7.260;2023-01-08T22:52:00;20.10;41.00
75500;DHT22;64076;51.466;7.260;2023-01-08T22:54:26;20.20;41.10
75500;DHT22;64076;51.466;7.260;2023-01-08T22:56:52;20.20;41.20
75500;DHT22;64076;51.466;7.260;2023-01-08T22:59:17;20.20;41.20
75500;DHT22;64076;51.466;7.260;2023-01-08T23:01:45;20.20;41.20
75500;DHT22;64076;51.466;7.260;2023-01-08T23:04:10;20.20;41.20
75500;DHT22;64076;51.466;7.260;2023-01-08T23:06:36;20.20;41.20
75500;DHT22;64076;51.466;7.260;2023-01-08T23:09:02;20.20;41.30
75500;DHT22;64076;51.466;7.260;2023-01-08T23:11:27;20.20;41.30
75500;DHT22;64076;51.466;7.260;2023-01-08T23:13:53;20.20;41.30
75500;DHT22;64076;51.466;7.260;2023-01-08T23:16:20;20.20;41.30
75500;DHT22;64076;51.466;7.260;2023-01-08T23:18:49;20.20;41.40
75500;DHT22;64076;51.466;7.260;2023-01-08T23:21:18;20.20;41.30
75500;DHT22;64076;51.466;7.260;2023-01-08T23:23:44;20.20;41.30
75500;DHT22;64076;51.466;7.260;2023-01-08T23:26:12;20.20;41.40
75500;DHT22;64076;51.466;7.260;2023-01-08T23:28:38;20.20;41.40
75500;DHT22;64076;51.466;7.260;2023-01-08T23:31:12;20.20;41.40
75500;DHT22;64076;51.466;7.260;2023-01-08T23:33:39;20.20;41.50
75500;DHT22;64076;51.466;7.260;2023-01-08T23:36:05;20.20;41.40
75500;DHT22;64076;51.466;7.260;2023-01-08T23:38:31;20.20;41.50
75500;DHT22;64076;51.466;7.260;2023-01-08T23:40:57;20.20;41.50
75500;DHT22;64076;51.466;7.260;2023-01-08T23:43:23;20.20;41.50
75500;DHT22;64076;51.466;7.260;2023-01-08T23:45:49;20.20;41.60
75500;DHT22;64076;51.466;7.260;2023-01-08T23:48:14;20.20;41.60
75500;DHT22;64076;51.466;7.260;2023-01-08T23:50:40;20.20;41.60
75500;DHT22;64076;51.466;7.260;2023-01-08T23:53:05;20.20;41.60
75500;DHT22;64076;51.466;7.260;2023-01-08T23:55:31;20.20;41.60
75500;DHT22;64076;51.466;7.260;2023-01-08T23:57:57;20.20;41.60
